sensor_id;sensor_type;location;lat;lon;timestamp;P1;durP1;ratioP1;P2;durP2;ratioP2
41456;SDS011;27197;51.752;5.220;2023-09-07T00:01:55;5.80;;;4.20;;
41456;SDS011;27197;51.752;5.220;2023-09-07T00:04:26;5.92;;;4.37;;
41456;SDS011;27197;51.752;5.220;2023-09-07T00:06:59;5.33;;;3.47;;
41456;SDS011;27197;51.752;5.220;2023-09-07T00:09:30;5.87;;;3.83;;
41456;SDS011;27197;51.752;5.220;2023-09-07T00:12:02;6.03;;;4.17;;
41456;SDS011;27197;51.752;5.220;2023-09-07T00:14:37;5.62;;;4.25;;
41456;SDS011;27197;51.752;5.220;2023-09-07T00:17:07;6.05;;;3.87;;
41456;SDS011;27197;51.752;5.220;2023-09-07T00:19:37;5.83;;;4.10;;
41456;SDS011;27197;51.752;5.220;2023-09-07T00:22:06;5.47;;;3.98;;
41456;SDS011;27197;51.752;5.220;2023-09-07T00:24:43;6.08;;;4.03;;
41456;SDS011;27197;51.752;5.220;2023-09-07T00:27:11;6.37;;;4.67;;
41456;SDS011;27197;51.752;5.220;2023-09-07T00:29:42;5.78;;;4.08;;
41456;SDS011;27197;51.752;5.220;2023-09-07T00:32:13;6.00;;;3.95;;
41456;SDS011;27197;51.752;5.220;2023-09-07T00:34:46;5.08;;;3.72;;
41456;SDS011;27197;51.752;5.220;2023-09-07T00:37:15;5.65;;;4.10;;
41456;SDS011;27197;51.752;5.220;2023-09-07T00:39:49;5.37;;;3.80;;
41456;SDS011;27197;51.752;5.220;2023-09-07T00:42:18;5.33;;;4.10;;
41456;SDS011;27197;51.752;5.220;2023-09-07T00:44:52;5.40;;;3.72;;
41456;SDS011;27197;51.752;5.220;2023-09-07T00:47:22;5.47;;;3.80;;
41456;SDS011;27197;51.752;5.220;2023-09-07T00:49:51;5.92;;;4.65;;
41456;SDS011;27197;51.752;5.220;2023-09-07T00:52:23;6.03;;;4.55;;
41456;SDS011;27197;51.752;5.220;2023-09-07T00:54:54;5.45;;;4.55;;
41456;SDS011;27197;51.752;5.220;2023-09-07T00:57:28;5.28;;;4.20;;
41456;SDS011;27197;51.752;5.220;2023-09-07T00:59:58;5.08;;;3.85;;
41456;SDS011;27197;51.752;5.220;2023-09-07T01:02:31;5.92;;;4.42;;
41456;SDS011;27197;51.752;5.220;2023-09-07T01:05:04;4.55;;;3.52;;
41456;SDS011;27197;51.752;5.220;2023-09-07T01:07:39;5.00;;;3.58;;
41456;SDS011;27197;51.752;5.220;2023-09-07T01:10:08;7.28;;;4.55;;
41456;SDS011;27197;51.752;5.220;2023-09-07T01:12:41;5.40;;;4.10;;
41456;SDS011;27197;51.752;5.220;2023-09-07T01:15:10;5.85;;;4.08;;
41456;SDS011;27197;51.752;5.220;2023-09-07T01:17:44;7.85;;;4.50;;
41456;SDS011;27197;51.752;5.220;2023-09-07T01:20:14;5.25;;;3.90;;
41456;SDS011;27197;51.752;5.220;2023-09-07T01:22:49;5.85;;;4.12;;
41456;SDS011;27197;51.752;5.220;2023-09-07T01:25:19;5.55;;;4.05;;
41456;SDS011;27197;51.752;5.220;2023-09-07T01:27:52;4.72;;;3.70;;
41456;SDS011;27197;51.752;5.220;2023-09-07T01:30:22;5.30;;;4.33;;
41456;SDS011;27197;51.752;5.220;2023-09-07T01:32:55;5.70;;;4.42;;
41456;SDS011;27197;51.752;5.220;2023-09-07T01:35:25;6.25;;;4.40;;
41456;SDS011;27197;51.752;5.220;2023-09-07T01:38:00;6.22;;;4.05;;
41456;SDS011;27197;51.752;5.220;2023-09-07T01:40:30;6.47;;;4.60;;
41456;SDS011;27197;51.752;5.220;2023-09-07T01:43:03;6.12;;;4.15;;
41456;SDS011;27197;51.752;5.220;2023-09-07T01:45:33;5.33;;;4.10;;
41456;SDS011;27197;51.752;5.220;2023-09-07T01:48:05;5.25;;;4.00;;
41456;SDS011;27197;51.752;5.220;2023-09-07T01:50:37;6.92;;;4.00;;
41456;SDS011;27197;51.752;5.220;2023-09-07T01:53:07;4.67;;;3.83;;
41456;SDS011;27197;51.752;5.220;2023-09-07T01:55:39;7.37;;;4.33;;
41456;SDS011;27197;51.752;5.220;2023-09-07T01:58:09;5.90;;;4.08;;
41456;SDS011;27197;51.752;5.220;2023-09-07T02:00:41;5.60;;;3.90;;
41456;SDS011;27197;51.752;5.220;2023-09-07T02:03:11;4.58;;;3.65;;
41456;SDS011;27197;51.752;5.220;2023-09-07T02:05:44;4.85;;;3.80;;
41456;SDS011;27197;51.752;5.220;2023-09-07T02:08:14;6.05;;;4.03;;
41456;SDS011;27197;51.752;5.220;2023-09-07T02:10:47;6.37;;;4.00;;
41456;SDS011;27197;51.752;5.220;2023-09-07T02:13:17;5.33;;;4.35;;
41456;SDS011;27197;51.752;5.220;2023-09-07T02:15:49;4.62;;;3.45;;
41456;SDS011;27197;51.752;5.220;2023-09-07T02:18:21;5.17;;;4.12;;
41456;SDS011;27197;51.752;5.220;2023-09-07T02:20:54;8.10;;;4.42;;
41456;SDS011;27197;51.752;5.220;2023-09-07T02:23:23;5.30;;;3.92;;
41456;SDS011;27197;51.752;5.220;2023-09-07T02:25:53;5.62;;;3.80;;
41456;SDS011;27197;51.752;5.220;2023-09-07T02:28:28;5.15;;;3.83;;
41456;SDS011;27197;51.752;5.220;2023-09-07T02:31:06;6.50;;;4.22;;
41456;SDS011;27197;51.752;5.220;2023-09-07T02:33:37;5.25;;;4.05;;
41456;SDS011;27197;51.752;5.220;2023-09-07T02:36:09;5.40;;;3.70;;
41456;SDS011;27197;51.752;5.220;2023-09-07T02:38:39;5.87;;;3.98;;
41456;SDS011;27197;51.752;5.220;2023-09-07T02:41:16;5.17;;;3.95;;
41456;SDS011;27197;51.752;5.220;2023-09-07T02:49:17;5.35;;;3.62;;
41456;SDS011;27197;51.752;5.220;2023-09-07T02:51:50;4.95;;;4.20;;
41456;SDS011;27197;51.752;5.220;2023-09-07T02:54:20;6.28;;;3.87;;
41456;SDS011;27197;51.752;5.220;2023-09-07T02:56:56;6.15;;;4.70;;
41456;SDS011;27197;51.752;5.220;2023-09-07T02:59:26;5.53;;;3.70;;
41456;SDS011;27197;51.752;5.220;2023-09-07T03:01:58;4.62;;;3.83;;
41456;SDS011;27197;51.752;5.220;2023-09-07T03:04:27;5.97;;;4.97;;
41456;SDS011;27197;51.752;5.220;2023-09-07T03:07:00;6.50;;;3.67;;
41456;SDS011;27197;51.752;5.220;2023-09-07T03:09:31;5.03;;;3.67;;
41456;SDS011;27197;51.752;5.220;2023-09-07T03:12:03;6.45;;;4.15;;
41456;SDS011;27197;51.752;5.220;2023-09-07T03:14:34;5.20;;;3.92;;
41456;SDS011;27197;51.752;5.220;2023-09-07T03:17:08;4.42;;;3.37;;
41456;SDS011;27197;51.752;5.220;2023-09-07T03:19:38;6.10;;;3.92;;
41456;SDS011;27197;51.752;5.220;2023-09-07T03:22:09;5.30;;;4.08;;
41456;SDS011;27197;51.752;5.220;2023-09-07T03:24:42;5.65;;;3.80;;
41456;SDS011;27197;51.752;5.220;2023-09-07T03:27:12;5.00;;;3.58;;
41456;SDS011;27197;51.752;5.220;2023-09-07T03:29:49;4.85;;;3.92;;
41456;SDS011;27197;51.752;5.220;2023-09-07T03:32:19;5.50;;;3.72;;
41456;SDS011;27197;51.752;5.220;2023-09-07T03:34:51;4.92;;;3.92;;
41456;SDS011;27197;51.752;5.220;2023-09-07T03:37:20;5.90;;;4.15;;
41456;SDS011;27197;51.752;5.220;2023-09-07T03:39:50;4.92;;;4.08;;
41456;SDS011;27197;51.752;5.220;2023-09-07T03:42:22;5.72;;;4.08;;
41456;SDS011;27197;51.752;5.220;2023-09-07T03:44:52;6.03;;;4.12;;
41456;SDS011;27197;51.752;5.220;2023-09-07T03:47:22;5.40;;;3.50;;
41456;SDS011;27197;51.752;5.220;2023-09-07T03:49:53;5.33;;;3.83;;
41456;SDS011;27197;51.752;5.220;2023-09-07T03:52:23;4.50;;;3.50;;
41456;SDS011;27197;51.752;5.220;2023-09-07T03:54:57;4.95;;;3.72;;
41456;SDS011;27197;51.752;5.220;2023-09-07T03:57:27;5.08;;;3.85;;
41456;SDS011;27197;51.752;5.220;2023-09-07T04:00:02;6.03;;;4.12;;
41456;SDS011;27197;51.752;5.220;2023-09-07T04:02:34;5.28;;;4.10;;
41456;SDS011;27197;51.752;5.220;2023-09-07T04:05:04;5.08;;;4.10;;
41456;SDS011;27197;51.752;5.220;2023-09-07T04:07:35;6.62;;;4.15;;
41456;SDS011;27197;51.752;5.220;2023-09-07T04:10:06;5.33;;;4.00;;
41456;SDS011;27197;51.752;5.220;2023-09-07T04:12:36;4.85;;;4.12;;
41456;SDS011;27197;51.752;5.220;2023-09-07T04:17:32;5.28;;;3.75;;
41456;SDS011;27197;51.752;5.220;2023-09-07T04:20:03;5.47;;;4.03;;
41456;SDS011;27197;51.752;5.220;2023-09-07T04:22:34;5.42;;;3.72;;
41456;SDS011;27197;51.752;5.220;2023-09-07T04:25:06;5.65;;;3.90;;
41456;SDS011;27197;51.752;5.220;2023-09-07T04:27:37;5.42;;;4.20;;
41456;SDS011;27197;51.752;5.220;2023-09-07T04:30:06;4.83;;;3.77;;
41456;SDS011;27197;51.752;5.220;2023-09-07T04:32:38;4.70;;;4.05;;
41456;SDS011;27197;51.752;5.220;2023-09-07T04:35:07;5.90;;;4.15;;
41456;SDS011;27197;51.752;5.220;2023-09-07T04:37:37;6.30;;;4.55;;
41456;SDS011;27197;51.752;5.220;2023-09-07T04:40:09;5.40;;;3.50;;
41456;SDS011;27197;51.752;5.220;2023-09-07T04:42:39;5.35;;;3.75;;
41456;SDS011;27197;51.752;5.220;2023-09-07T04:45:11;4.42;;;3.52;;
41456;SDS011;27197;51.752;5.220;2023-09-07T04:47:40;5.30;;;3.58;;
41456;SDS011;27197;51.752;5.220;2023-09-07T04:50:11;4.70;;;3.90;;
41456;SDS011;27197;51.752;5.220;2023-09-07T04:52:45;4.62;;;3.83;;
41456;SDS011;27197;51.752;5.220;2023-09-07T04:55:15;4.97;;;4.00;;
41456;SDS011;27197;51.752;5.220;2023-09-07T04:57:44;4.95;;;4.10;;
41456;SDS011;27197;51.752;5.220;2023-09-07T05:00:14;5.62;;;3.92;;
41456;SDS011;27197;51.752;5.220;2023-09-07T05:02:47;5.05;;;3.37;;
41456;SDS011;27197;51.752;5.220;2023-09-07T05:05:20;4.62;;;3.33;;
41456;SDS011;27197;51.752;5.220;2023-09-07T05:07:53;3.67;;;2.95;;
41456;SDS011;27197;51.752;5.220;2023-09-07T05:10:23;5.87;;;3.77;;
41456;SDS011;27197;51.752;5.220;2023-09-07T05:12:58;8.75;;;4.45;;
41456;SDS011;27197;51.752;5.220;2023-09-07T05:15:28;8.53;;;3.67;;
41456;SDS011;27197;51.752;5.220;2023-09-07T05:18:01;9.33;;;3.67;;
41456;SDS011;27197;51.752;5.220;2023-09-07T05:20:31;9.28;;;4.47;;
41456;SDS011;27197;51.752;5.220;2023-09-07T05:23:03;9.65;;;4.37;;
41456;SDS011;27197;51.752;5.220;2023-09-07T05:25:33;7.42;;;4.37;;
41456;SDS011;27197;51.752;5.220;2023-09-07T05:28:05;6.30;;;3.98;;
41456;SDS011;27197;51.752;5.220;2023-09-07T05:30:38;10.15;;;4.08;;
41456;SDS011;27197;51.752;5.220;2023-09-07T05:33:13;8.00;;;4.20;;
41456;SDS011;27197;51.752;5.220;2023-09-07T05:35:48;8.88;;;4.53;;
41456;SDS011;27197;51.752;5.220;2023-09-07T05:38:22;7.90;;;4.17;;
41456;SDS011;27197;51.752;5.220;2023-09-07T05:40:52;8.15;;;4.60;;
41456;SDS011;27197;51.752;5.220;2023-09-07T05:43:25;8.75;;;5.20;;
41456;SDS011;27197;51.752;5.220;2023-09-07T05:45:55;9.30;;;4.97;;
41456;SDS011;27197;51.752;5.220;2023-09-07T05:48:25;8.35;;;5.67;;
41456;SDS011;27197;51.752;5.220;2023-09-07T05:50:56;7.65;;;5.45;;
41456;SDS011;27197;51.752;5.220;2023-09-07T05:53:31;23.05;;;7.70;;
41456;SDS011;27197;51.752;5.220;2023-09-07T05:56:02;15.58;;;6.95;;
41456;SDS011;27197;51.752;5.220;2023-09-07T05:58:35;10.28;;;5.15;;
41456;SDS011;27197;51.752;5.220;2023-09-07T06:01:05;8.60;;;4.87;;
41456;SDS011;27197;51.752;5.220;2023-09-07T06:03:37;9.73;;;5.35;;
41456;SDS011;27197;51.752;5.220;2023-09-07T06:06:07;10.40;;;6.45;;
41456;SDS011;27197;51.752;5.220;2023-09-07T06:08:40;9.08;;;5.60;;
41456;SDS011;27197;51.752;5.220;2023-09-07T06:11:12;6.53;;;5.12;;
41456;SDS011;27197;51.752;5.220;2023-09-07T06:13:45;7.40;;;5.00;;
41456;SDS011;27197;51.752;5.220;2023-09-07T06:16:15;7.08;;;4.53;;
41456;SDS011;27197;51.752;5.220;2023-09-07T06:18:48;10.82;;;5.00;;
41456;SDS011;27197;51.752;5.220;2023-09-07T06:21:16;8.78;;;4.87;;
41456;SDS011;27197;51.752;5.220;2023-09-07T06:23:48;7.47;;;4.47;;
41456;SDS011;27197;51.752;5.220;2023-09-07T06:26:19;9.18;;;5.35;;
41456;SDS011;27197;51.752;5.220;2023-09-07T06:28:50;9.30;;;5.45;;
41456;SDS011;27197;51.752;5.220;2023-09-07T06:31:20;9.75;;;4.87;;
41456;SDS011;27197;51.752;5.220;2023-09-07T06:33:52;8.30;;;4.90;;
41456;SDS011;27197;51.752;5.220;2023-09-07T06:36:22;9.93;;;5.20;;
41456;SDS011;27197;51.752;5.220;2023-09-07T06:38:56;6.15;;;4.83;;
41456;SDS011;27197;51.752;5.220;2023-09-07T06:41:27;7.80;;;5.80;;
41456;SDS011;27197;51.752;5.220;2023-09-07T06:44:01;7.12;;;4.60;;
41456;SDS011;27197;51.752;5.220;2023-09-07T06:46:31;10.28;;;4.90;;
41456;SDS011;27197;51.752;5.220;2023-09-07T06:49:02;8.20;;;4.28;;
41456;SDS011;27197;51.752;5.220;2023-09-07T06:51:36;8.80;;;4.67;;
41456;SDS011;27197;51.752;5.220;2023-09-07T06:54:06;8.18;;;5.15;;
41456;SDS011;27197;51.752;5.220;2023-09-07T06:56:37;7.12;;;4.17;;
41456;SDS011;27197;51.752;5.220;2023-09-07T06:59:05;7.67;;;4.35;;
41456;SDS011;27197;51.752;5.220;2023-09-07T07:04:03;6.75;;;4.30;;
41456;SDS011;27197;51.752;5.220;2023-09-07T07:06:33;7.85;;;5.35;;
41456;SDS011;27197;51.752;5.220;2023-09-07T07:09:08;7.95;;;4.30;;
41456;SDS011;27197;51.752;5.220;2023-09-07T07:11:36;6.70;;;4.28;;
41456;SDS011;27197;51.752;5.220;2023-09-07T07:14:07;9.15;;;5.70;;
41456;SDS011;27197;51.752;5.220;2023-09-07T07:16:39;7.90;;;4.22;;
41456;SDS011;27197;51.752;5.220;2023-09-07T07:19:10;7.62;;;4.35;;
41456;SDS011;27197;51.752;5.220;2023-09-07T07:21:45;5.42;;;3.92;;
41456;SDS011;27197;51.752;5.220;2023-09-07T07:24:14;6.12;;;4.00;;
41456;SDS011;27197;51.752;5.220;2023-09-07T07:26:47;6.45;;;4.65;;
41456;SDS011;27197;51.752;5.220;2023-09-07T07:29:17;5.50;;;3.92;;
41456;SDS011;27197;51.752;5.220;2023-09-07T07:31:46;7.75;;;6.53;;
41456;SDS011;27197;51.752;5.220;2023-09-07T07:34:16;6.03;;;4.15;;
41456;SDS011;27197;51.752;5.220;2023-09-07T07:36:46;5.35;;;3.67;;
41456;SDS011;27197;51.752;5.220;2023-09-07T07:39:22;6.53;;;4.30;;
41456;SDS011;27197;51.752;5.220;2023-09-07T07:41:52;5.83;;;3.90;;
41456;SDS011;27197;51.752;5.220;2023-09-07T07:44:24;10.20;;;7.72;;
41456;SDS011;27197;51.752;5.220;2023-09-07T07:46:54;5.75;;;4.22;;
41456;SDS011;27197;51.752;5.220;2023-09-07T07:49:28;8.90;;;6.08;;
41456;SDS011;27197;51.752;5.220;2023-09-07T07:51:59;10.50;;;5.70;;
41456;SDS011;27197;51.752;5.220;2023-09-07T07:54:30;10.95;;;8.33;;
41456;SDS011;27197;51.752;5.220;2023-09-07T07:57:01;5.08;;;3.95;;
41456;SDS011;27197;51.752;5.220;2023-09-07T07:59:34;11.70;;;7.47;;
41456;SDS011;27197;51.752;5.220;2023-09-07T08:02:03;13.93;;;5.90;;
41456;SDS011;27197;51.752;5.220;2023-09-07T08:04:38;11.60;;;6.85;;
41456;SDS011;27197;51.752;5.220;2023-09-07T08:07:08;10.08;;;5.53;;
41456;SDS011;27197;51.752;5.220;2023-09-07T08:09:39;9.98;;;5.00;;
41456;SDS011;27197;51.752;5.220;2023-09-07T08:12:10;9.70;;;5.05;;
41456;SDS011;27197;51.752;5.220;2023-09-07T08:14:44;12.30;;;6.17;;
41456;SDS011;27197;51.752;5.220;2023-09-07T08:17:14;9.48;;;5.90;;
41456;SDS011;27197;51.752;5.220;2023-09-07T08:19:48;8.68;;;5.58;;
41456;SDS011;27197;51.752;5.220;2023-09-07T08:22:18;7.85;;;6.12;;
41456;SDS011;27197;51.752;5.220;2023-09-07T08:24:48;8.63;;;5.70;;
41456;SDS011;27197;51.752;5.220;2023-09-07T08:27:21;8.48;;;5.47;;
41456;SDS011;27197;51.752;5.220;2023-09-07T08:29:50;8.85;;;4.90;;
41456;SDS011;27197;51.752;5.220;2023-09-07T08:32:21;8.98;;;6.90;;
41456;SDS011;27197;51.752;5.220;2023-09-07T08:34:53;9.73;;;5.35;;
41456;SDS011;27197;51.752;5.220;2023-09-07T08:37:23;8.30;;;5.65;;
41456;SDS011;27197;51.752;5.220;2023-09-07T08:39:54;7.83;;;4.65;;
41456;SDS011;27197;51.752;5.220;2023-09-07T08:42:25;5.90;;;4.10;;
41456;SDS011;27197;51.752;5.220;2023-09-07T08:45:00;11.43;;;6.33;;
41456;SDS011;27197;51.752;5.220;2023-09-07T08:47:30;8.50;;;5.00;;
41456;SDS011;27197;51.752;5.220;2023-09-07T08:50:08;7.58;;;3.95;;
41456;SDS011;27197;51.752;5.220;2023-09-07T08:52:37;8.75;;;4.62;;
41456;SDS011;27197;51.752;5.220;2023-09-07T08:55:08;10.20;;;6.33;;
41456;SDS011;27197;51.752;5.220;2023-09-07T08:57:39;6.92;;;4.62;;
41456;SDS011;27197;51.752;5.220;2023-09-07T09:00:10;6.45;;;4.10;;
41456;SDS011;27197;51.752;5.220;2023-09-07T09:02:42;11.80;;;5.08;;
41456;SDS011;27197;51.752;5.220;2023-09-07T09:05:12;7.95;;;5.08;;
41456;SDS011;27197;51.752;5.220;2023-09-07T09:07:47;9.23;;;6.00;;
41456;SDS011;27197;51.752;5.220;2023-09-07T09:10:17;8.75;;;4.83;;
41456;SDS011;27197;51.752;5.220;2023-09-07T09:12:50;7.37;;;4.40;;
41456;SDS011;27197;51.752;5.220;2023-09-07T09:15:25;9.48;;;4.30;;
41456;SDS011;27197;51.752;5.220;2023-09-07T09:17:55;8.28;;;5.30;;
41456;SDS011;27197;51.752;5.220;2023-09-07T09:20:30;10.48;;;4.53;;
41456;SDS011;27197;51.752;5.220;2023-09-07T09:23:03;6.33;;;3.70;;
41456;SDS011;27197;51.752;5.220;2023-09-07T09:25:39;8.10;;;5.78;;
41456;SDS011;27197;51.752;5.220;2023-09-07T09:28:09;8.38;;;4.87;;
41456;SDS011;27197;51.752;5.220;2023-09-07T09:30:43;6.75;;;4.53;;
41456;SDS011;27197;51.752;5.220;2023-09-07T09:33:13;7.37;;;5.33;;
41456;SDS011;27197;51.752;5.220;2023-09-07T09:35:45;9.75;;;5.42;;
41456;SDS011;27197;51.752;5.220;2023-09-07T09:38:16;6.60;;;4.25;;
41456;SDS011;27197;51.752;5.220;2023-09-07T09:40:52;9.98;;;4.22;;
41456;SDS011;27197;51.752;5.220;2023-09-07T09:43:27;8.53;;;3.77;;
41456;SDS011;27197;51.752;5.220;2023-09-07T09:45:56;6.87;;;4.45;;
41456;SDS011;27197;51.752;5.220;2023-09-07T09:48:31;9.35;;;3.87;;
41456;SDS011;27197;51.752;5.220;2023-09-07T09:51:01;6.10;;;4.67;;
41456;SDS011;27197;51.752;5.220;2023-09-07T09:53:38;7.92;;;5.62;;
41456;SDS011;27197;51.752;5.220;2023-09-07T09:56:11;6.83;;;4.47;;
41456;SDS011;27197;51.752;5.220;2023-09-07T09:58:41;7.17;;;4.80;;
41456;SDS011;27197;51.752;5.220;2023-09-07T10:01:14;7.80;;;4.95;;
41456;SDS011;27197;51.752;5.220;2023-09-07T10:03:47;7.12;;;4.92;;
41456;SDS011;27197;51.752;5.220;2023-09-07T10:06:27;5.85;;;3.62;;
41456;SDS011;27197;51.752;5.220;2023-09-07T10:09:01;5.55;;;3.70;;
41456;SDS011;27197;51.752;5.220;2023-09-07T10:11:38;8.08;;;4.30;;
41456;SDS011;27197;51.752;5.220;2023-09-07T10:14:06;6.83;;;4.00;;
41456;SDS011;27197;51.752;5.220;2023-09-07T10:16:41;7.70;;;4.10;;
41456;SDS011;27197;51.752;5.220;2023-09-07T10:21:54;5.70;;;4.10;;
41456;SDS011;27197;51.752;5.220;2023-09-07T10:24:27;4.92;;;3.65;;
41456;SDS011;27197;51.752;5.220;2023-09-07T10:27:06;4.90;;;3.33;;
41456;SDS011;27197;51.752;5.220;2023-09-07T10:29:44;5.42;;;3.33;;
41456;SDS011;27197;51.752;5.220;2023-09-07T10:32:19;5.10;;;3.95;;
41456;SDS011;27197;51.752;5.220;2023-09-07T10:34:49;7.25;;;4.80;;
41456;SDS011;27197;51.752;5.220;2023-09-07T10:37:27;6.22;;;3.90;;
41456;SDS011;27197;51.752;5.220;2023-09-07T10:39:55;5.05;;;3.27;;
41456;SDS011;27197;51.752;5.220;2023-09-07T10:42:30;4.83;;;3.40;;
41456;SDS011;27197;51.752;5.220;2023-09-07T10:45:11;4.10;;;3.10;;
41456;SDS011;27197;51.752;5.220;2023-09-07T10:47:44;5.25;;;3.22;;
41456;SDS011;27197;51.752;5.220;2023-09-07T10:50:15;5.50;;;3.90;;
41456;SDS011;27197;51.752;5.220;2023-09-07T10:52:47;5.87;;;4.00;;
41456;SDS011;27197;51.752;5.220;2023-09-07T10:55:19;5.05;;;3.55;;
41456;SDS011;27197;51.752;5.220;2023-09-07T10:57:48;5.25;;;3.33;;
41456;SDS011;27197;51.752;5.220;2023-09-07T11:00:18;4.65;;;4.15;;
41456;SDS011;27197;51.752;5.220;2023-09-07T11:02:52;6.30;;;3.35;;
41456;SDS011;27197;51.752;5.220;2023-09-07T11:05:22;4.75;;;3.65;;
41456;SDS011;27197;51.752;5.220;2023-09-07T11:08:10;6.33;;;3.50;;
41456;SDS011;27197;51.752;5.220;2023-09-07T11:13:09;4.83;;;3.15;;
41456;SDS011;27197;51.752;5.220;2023-09-07T11:15:45;6.53;;;3.55;;
41456;SDS011;27197;51.752;5.220;2023-09-07T11:18:19;6.53;;;3.33;;
41456;SDS011;27197;51.752;5.220;2023-09-07T11:20:54;5.85;;;3.08;;
41456;SDS011;27197;51.752;5.220;2023-09-07T11:23:24;6.20;;;3.72;;
41456;SDS011;27197;51.752;5.220;2023-09-07T11:25:54;5.53;;;4.00;;
41456;SDS011;27197;51.752;5.220;2023-09-07T11:28:23;4.40;;;3.45;;
41456;SDS011;27197;51.752;5.220;2023-09-07T11:30:55;4.53;;;3.30;;
41456;SDS011;27197;51.752;5.220;2023-09-07T11:33:31;5.72;;;3.27;;
41456;SDS011;27197;51.752;5.220;2023-09-07T11:36:00;5.75;;;3.10;;
41456;SDS011;27197;51.752;5.220;2023-09-07T11:38:42;5.45;;;3.50;;
41456;SDS011;27197;51.752;5.220;2023-09-07T11:41:04;5.72;;;3.60;;
41456;SDS011;27197;51.752;5.220;2023-09-07T11:46:03;5.72;;;3.70;;
41456;SDS011;27197;51.752;5.220;2023-09-07T11:48:35;4.12;;;2.58;;
41456;SDS011;27197;51.752;5.220;2023-09-07T11:51:05;3.65;;;2.87;;
41456;SDS011;27197;51.752;5.220;2023-09-07T11:53:37;4.60;;;3.25;;
41456;SDS011;27197;51.752;5.220;2023-09-07T11:56:07;7.95;;;3.95;;
41456;SDS011;27197;51.752;5.220;2023-09-07T11:58:38;4.70;;;2.50;;
41456;SDS011;27197;51.752;5.220;2023-09-07T12:01:15;3.72;;;2.60;;
41456;SDS011;27197;51.752;5.220;2023-09-07T12:03:45;3.55;;;2.80;;
41456;SDS011;27197;51.752;5.220;2023-09-07T12:06:19;4.75;;;3.17;;
41456;SDS011;27197;51.752;5.220;2023-09-07T12:09:00;5.87;;;4.10;;
41456;SDS011;27197;51.752;5.220;2023-09-07T12:11:32;5.65;;;2.83;;
41456;SDS011;27197;51.752;5.220;2023-09-07T12:14:03;6.30;;;3.70;;
41456;SDS011;27197;51.752;5.220;2023-09-07T12:16:40;4.72;;;3.30;;
41456;SDS011;27197;51.752;5.220;2023-09-07T12:19:09;11.20;;;4.73;;
41456;SDS011;27197;51.752;5.220;2023-09-07T12:21:41;6.60;;;3.45;;
41456;SDS011;27197;51.752;5.220;2023-09-07T12:24:10;6.78;;;3.60;;
41456;SDS011;27197;51.752;5.220;2023-09-07T12:26:44;6.80;;;3.95;;
41456;SDS011;27197;51.752;5.220;2023-09-07T12:29:14;7.00;;;4.53;;
41456;SDS011;27197;51.752;5.220;2023-09-07T12:31:48;8.70;;;3.77;;
41456;SDS011;27197;51.752;5.220;2023-09-07T12:34:17;9.15;;;3.90;;
41456;SDS011;27197;51.752;5.220;2023-09-07T12:36:50;6.58;;;3.50;;
41456;SDS011;27197;51.752;5.220;2023-09-07T12:39:20;6.10;;;3.50;;
41456;SDS011;27197;51.752;5.220;2023-09-07T12:41:50;4.95;;;3.10;;
41456;SDS011;27197;51.752;5.220;2023-09-07T12:44:26;7.90;;;4.15;;
41456;SDS011;27197;51.752;5.220;2023-09-07T12:46:56;6.85;;;3.40;;
41456;SDS011;27197;51.752;5.220;2023-09-07T12:49:30;7.10;;;4.30;;
41456;SDS011;27197;51.752;5.220;2023-09-07T12:52:03;4.78;;;3.08;;
41456;SDS011;27197;51.752;5.220;2023-09-07T12:54:37;5.35;;;3.50;;
41456;SDS011;27197;51.752;5.220;2023-09-07T12:57:07;6.40;;;3.75;;
41456;SDS011;27197;51.752;5.220;2023-09-07T12:59:41;6.12;;;3.50;;
41456;SDS011;27197;51.752;5.220;2023-09-07T13:02:11;9.13;;;3.67;;
41456;SDS011;27197;51.752;5.220;2023-09-07T13:04:42;3.67;;;2.40;;
41456;SDS011;27197;51.752;5.220;2023-09-07T13:07:12;5.75;;;3.60;;
41456;SDS011;27197;51.752;5.220;2023-09-07T13:09:47;6.10;;;3.42;;
41456;SDS011;27197;51.752;5.220;2023-09-07T13:12:18;5.60;;;3.47;;
41456;SDS011;27197;51.752;5.220;2023-09-07T13:14:48;8.88;;;3.80;;
41456;SDS011;27197;51.752;5.220;2023-09-07T13:17:23;6.37;;;3.50;;
41456;SDS011;27197;51.752;5.220;2023-09-07T13:19:53;6.70;;;3.72;;
41456;SDS011;27197;51.752;5.220;2023-09-07T13:22:23;5.47;;;3.40;;
41456;SDS011;27197;51.752;5.220;2023-09-07T13:24:59;5.78;;;3.35;;
41456;SDS011;27197;51.752;5.220;2023-09-07T13:27:30;7.33;;;3.05;;
41456;SDS011;27197;51.752;5.220;2023-09-07T13:30:01;7.85;;;3.35;;
41456;SDS011;27197;51.752;5.220;2023-09-07T13:32:34;7.83;;;3.27;;
41456;SDS011;27197;51.752;5.220;2023-09-07T13:35:05;4.85;;;3.22;;
41456;SDS011;27197;51.752;5.220;2023-09-07T13:37:37;5.20;;;3.33;;
41456;SDS011;27197;51.752;5.220;2023-09-07T13:40:06;7.00;;;3.45;;
41456;SDS011;27197;51.752;5.220;2023-09-07T13:42:39;4.37;;;3.20;;
41456;SDS011;27197;51.752;5.220;2023-09-07T13:45:09;6.87;;;3.33;;
41456;SDS011;27197;51.752;5.220;2023-09-07T13:47:44;5.90;;;3.27;;
41456;SDS011;27197;51.752;5.220;2023-09-07T13:50:14;6.22;;;3.50;;
41456;SDS011;27197;51.752;5.220;2023-09-07T13:52:50;5.47;;;2.92;;
41456;SDS011;27197;51.752;5.220;2023-09-07T13:55:20;4.55;;;3.00;;
41456;SDS011;27197;51.752;5.220;2023-09-07T13:57:54;5.30;;;2.92;;
41456;SDS011;27197;51.752;5.220;2023-09-07T14:00:24;4.53;;;2.80;;
41456;SDS011;27197;51.752;5.220;2023-09-07T14:03:00;10.58;;;2.90;;
41456;SDS011;27197;51.752;5.220;2023-09-07T14:05:35;4.17;;;2.65;;
41456;SDS011;27197;51.752;5.220;2023-09-07T14:08:04;5.30;;;3.12;;
41456;SDS011;27197;51.752;5.220;2023-09-07T14:10:38;6.17;;;3.60;;
41456;SDS011;27197;51.752;5.220;2023-09-07T14:13:08;4.70;;;3.00;;
41456;SDS011;27197;51.752;5.220;2023-09-07T14:15:37;5.67;;;3.50;;
41456;SDS011;27197;51.752;5.220;2023-09-07T14:18:11;4.08;;;3.22;;
41456;SDS011;27197;51.752;5.220;2023-09-07T14:20:41;6.37;;;3.75;;
41456;SDS011;27197;51.752;5.220;2023-09-07T14:23:15;6.95;;;4.17;;
41456;SDS011;27197;51.752;5.220;2023-09-07T14:25:45;4.95;;;3.55;;
41456;SDS011;27197;51.752;5.220;2023-09-07T14:28:16;4.12;;;3.10;;
41456;SDS011;27197;51.752;5.220;2023-09-07T14:30:51;6.67;;;3.20;;
41456;SDS011;27197;51.752;5.220;2023-09-07T14:33:23;5.20;;;3.08;;
41456;SDS011;27197;51.752;5.220;2023-09-07T14:35:51;4.95;;;2.55;;
41456;SDS011;27197;51.752;5.220;2023-09-07T14:38:25;6.12;;;3.10;;
41456;SDS011;27197;51.752;5.220;2023-09-07T14:41:00;7.33;;;3.67;;
41456;SDS011;27197;51.752;5.220;2023-09-07T14:43:34;4.97;;;3.10;;
41456;SDS011;27197;51.752;5.220;2023-09-07T14:46:04;4.20;;;2.70;;
41456;SDS011;27197;51.752;5.220;2023-09-07T14:48:36;5.60;;;3.10;;
41456;SDS011;27197;51.752;5.220;2023-09-07T14:51:06;4.25;;;3.17;;
41456;SDS011;27197;51.752;5.220;2023-09-07T14:53:37;5.12;;;3.20;;
41456;SDS011;27197;51.752;5.220;2023-09-07T14:56:09;4.80;;;3.35;;
41456;SDS011;27197;51.752;5.220;2023-09-07T14:58:40;4.87;;;3.37;;
41456;SDS011;27197;51.752;5.220;2023-09-07T15:01:13;4.62;;;2.92;;
41456;SDS011;27197;51.752;5.220;2023-09-07T15:03:43;4.83;;;2.95;;
41456;SDS011;27197;51.752;5.220;2023-09-07T15:06:13;4.08;;;2.80;;
41456;SDS011;27197;51.752;5.220;2023-09-07T15:08:47;4.47;;;3.00;;
41456;SDS011;27197;51.752;5.220;2023-09-07T15:11:21;5.53;;;3.27;;
41456;SDS011;27197;51.752;5.220;2023-09-07T15:13:54;5.67;;;2.98;;
41456;SDS011;27197;51.752;5.220;2023-09-07T15:16:24;4.45;;;2.80;;
41456;SDS011;27197;51.752;5.220;2023-09-07T15:18:54;4.47;;;3.33;;
41456;SDS011;27197;51.752;5.220;2023-09-07T15:21:27;4.08;;;2.70;;
41456;SDS011;27197;51.752;5.220;2023-09-07T15:23:57;5.08;;;2.92;;
41456;SDS011;27197;51.752;5.220;2023-09-07T15:26:39;3.80;;;2.62;;
41456;SDS011;27197;51.752;5.220;2023-09-07T15:29:12;5.03;;;2.70;;
41456;SDS011;27197;51.752;5.220;2023-09-07T15:31:41;5.37;;;2.95;;
41456;SDS011;27197;51.752;5.220;2023-09-07T15:34:15;4.65;;;2.70;;